Time;durP1;ratioP1;P1;durP2;ratioP2;P2;SDS_P1;SDS_P2;PMS_P1;PMS_P2;Temp;Humidity;BMP_temperature;BMP_pressure;BME280_temperature;BME280_humidity;BME280_pressure;Samples;Min_cycle;Max_cycle;Signal;HPM_P1;HPM_P2
2022/05/09 00:02:06;;;;;;;12.68;2.30;;;;;;;9.63;77.55;102738.00;5048656;28;20166;-62
2022/05/09 00:04:35;;;;;;;11.65;2.83;;;;;;;9.61;77.52;102729.31;5051724;28;20064;-62
2022/05/09 00:07:04;;;;;;;10.82;2.60;;;;;;;9.65;77.61;102730.06;5046349;28;20045;-62
2022/05/09 00:09:33;;;;;;;13.05;2.83;;;;;;;9.52;78.32;102734.84;5049168;28;20120;-62
2022/05/09 00:12:02;;;;;;;14.63;2.85;;;;;;;9.35;79.33;102724.84;5052518;28;20041;-61
2022/05/09 00:14:30;;;;;;;10.32;2.70;;;;;;;9.36;79.37;102721.31;5050100;28;20511;-61
2022/05/09 00:16:58;;;;;;;8.05;2.20;;;;;;;9.32;80.07;102718.84;5047733;28;20079;-60
2022/05/09 00:19:27;;;;;;;9.52;2.83;;;;;;;9.29;80.10;102722.41;5051996;28;20044;-61
2022/05/09 00:21:55;;;;;;;12.45;2.78;;;;;;;9.23;80.76;102717.34;5051060;28;20140;-62
2022/05/09 00:24:24;;;;;;;12.55;3.00;;;;;;;9.29;80.41;102720.66;5052528;28;20136;-62
2022/05/09 00:26:54;;;;;;;14.27;2.50;;;;;;;9.27;80.92;102713.72;5049621;28;20048;-62
2022/05/09 00:29:23;;;;;;;8.50;2.63;;;;;;;9.24;80.74;102727.81;5048012;28;20080;-61
2022/05/09 00:31:53;;;;;;;14.32;3.10;;;;;;;9.07;81.88;102716.94;5051064;28;20049;-53
2022/05/09 00:34:22;;;;;;;10.57;2.75;;;;;;;9.08;81.93;102721.28;5052108;28;20525;-56
2022/05/09 00:36:52;;;;;;;14.32;3.30;;;;;;;9.05;82.30;102719.63;5052147;28;20135;-55
2022/05/09 00:39:21;;;;;;;11.73;3.03;;;;;;;9.06;82.59;102720.47;5051633;28;20564;-55
2022/05/09 00:41:49;;;;;;;12.70;2.80;;;;;;;9.08;82.42;102713.41;5052238;28;20500;-55
2022/05/09 00:44:21;;;;;;;11.18;2.55;;;;;;;9.02;83.22;102713.59;5048629;28;20053;-54
2022/05/09 00:46:55;;;;;;;11.80;2.55;;;;;;;9.03;82.67;102710.06;5048323;28;20056;-53
2022/05/09 00:49:28;;;;;;;16.33;3.03;;;;;;;8.99;83.21;102717.16;5051800;28;20050;-55
2022/05/09 00:52:01;;;;;;;8.95;3.05;;;;;;;8.92;83.79;102705.97;5051980;28;20428;-55
2022/05/09 00:54:35;;;;;;;12.18;2.80;;;;;;;8.89;83.86;102706.06;5052070;28;20519;-55
2022/05/09 00:57:07;;;;;;;10.75;3.15;;;;;;;8.92;83.85;102705.97;5051189;28;20147;-54
2022/05/09 00:59:39;;;;;;;8.73;2.83;;;;;;;8.96;83.74;102704.13;5047364;28;20045;-53
2022/05/09 01:02:08;;;;;;;11.40;3.70;;;;;;;8.95;83.32;102705.88;5049421;28;20057;-57
2022/05/09 01:04:45;;;;;;;12.30;2.83;;;;;;;8.92;84.03;102705.13;5051832;28;20052;-55
2022/05/09 01:07:14;;;;;;;15.65;3.35;;;;;;;8.85;84.13;102708.81;5051842;28;20056;-54
2022/05/09 01:09:42;;;;;;;11.13;3.25;;;;;;;8.81;84.77;102697.56;5050774;28;20155;-54
2022/05/09 01:12:12;;;;;;;9.38;2.65;;;;;;;8.82;84.58;102709.78;5047804;28;20530;-56
2022/05/09 01:14:42;;;;;;;12.40;3.72;;;;;;;8.82;84.45;102701.03;5049337;28;20053;-54
2022/05/09 01:17:11;;;;;;;9.35;2.67;;;;;;;8.93;84.03;102699.81;5051550;28;20053;-55
2022/05/09 01:19:41;;;;;;;10.15;2.90;;;;;;;8.89;84.00;102702.56;5048238;28;20136;-55
2022/05/09 01:22:23;;;;;;;14.43;3.50;;;;;;;8.77;84.86;102698.53;5046620;28;20076;-55
2022/05/09 01:24:52;;;;;;;10.85;3.22;;;;;;;8.82;84.70;102698.41;5051490;28;20052;-55
2022/05/09 01:27:20;;;;;;;15.02;3.17;;;;;;;8.67;85.27;102692.69;5049870;28;20045;-56
2022/05/09 01:29:56;;;;;;;13.93;2.97;;;;;;;8.75;85.08;102695.09;5047331;28;20055;-55
2022/05/09 01:32:29;;;;;;;12.10;2.88;;;;;;;8.85;84.16;102693.06;5050589;28;20463;-54
2022/05/09 01:35:02;;;;;;;10.15;2.92;;;;;;;8.77;84.90;102688.91;5047193;28;20152;-55
2022/05/09 01:37:34;;;;;;;11.50;2.95;;;;;;;8.73;85.09;102682.03;5048468;28;20536;-54
2022/05/09 01:40:02;;;;;;;8.10;3.35;;;;;;;8.73;85.89;102683.78;5051256;28;20147;-55
2022/05/09 01:42:32;;;;;;;17.25;3.22;;;;;;;8.67;85.98;102687.47;5051429;28;20068;-56
2022/05/09 01:45:00;;;;;;;12.10;2.78;;;;;;;8.70;85.85;102683.84;5051139;28;20056;-56
2022/05/09 01:50:14;;;;;;;9.88;3.20;;;;;;;8.67;86.31;102689.19;5051092;28;20087;-55
2022/05/09 01:52:44;;;;;;;14.73;3.47;;;;;;;8.73;86.39;102687.25;5050604;28;20056;-56
2022/05/09 01:55:12;;;;;;;11.48;3.40;;;;;;;8.61;87.02;102680.59;5051091;28;20575;-55
2022/05/09 01:57:40;;;;;;;14.25;3.20;;;;;;;8.57;87.06;102678.94;5054163;28;20558;-56
2022/05/09 02:00:10;;;;;;;13.40;3.20;;;;;;;8.50;87.66;102681.81;5054418;28;20049;-56
2022/05/09 02:02:40;;;;;;;13.90;3.58;;;;;;;8.44;87.89;102688.06;5054584;28;20099;-55
2022/05/09 02:05:09;;;;;;;10.80;2.83;;;;;;;8.54;87.75;102686.91;5054540;28;20059;-54
2022/05/09 02:07:37;;;;;;;9.77;2.85;;;;;;;8.61;87.29;102688.47;5051902;28;20559;-53
2022/05/09 02:10:07;;;;;;;13.10;3.50;;;;;;;8.66;86.10;102684.84;5050685;28;20041;-56
2022/05/09 02:12:36;;;;;;;14.55;3.45;;;;;;;8.54;87.45;102683.44;5054079;28;20144;-56
2022/05/09 02:15:05;;;;;;;12.52;3.33;;;;;;;8.57;87.56;102685.97;5050618;28;20049;-54
2022/05/09 02:17:33;;;;;;;11.45;3.42;;;;;;;8.43;88.19;102684.53;5053165;28;20051;-55
2022/05/09 02:20:01;;;;;;;12.20;3.20;;;;;;;8.37;87.98;102683.84;5054443;28;20055;-55
2022/05/09 02:22:30;;;;;;;11.10;3.33;;;;;;;8.41;87.49;102680.25;5054610;28;20083;-55
2022/05/09 02:24:58;;;;;;;14.73;3.28;;;;;;;8.37;87.34;102678.59;5054413;28;20061;-54
2022/05/09 02:27:28;;;;;;;13.60;3.03;;;;;;;8.40;87.56;102679.41;5053329;28;20056;-55
2022/05/09 02:29:57;;;;;;;11.18;3.55;;;;;;;8.35;87.88;102689.13;5051700;28;20072;-55
2022/05/09 02:32:25;;;;;;;10.32;3.20;;;;;;;8.27;88.22;102689.31;5050385;28;20407;-55
2022/05/09 02:34:53;;;;;;;18.25;4.03;;;;;;;8.23;88.02;102681.59;5053058;28;20056;-55
2022/05/09 02:37:22;;;;;;;11.95;2.92;;;;;;;8.29;88.34;102678.81;5054504;28;20132;-53
2022/05/09 02:39:52;;;;;;;11.07;3.35;;;;;;;8.25;88.29;102680.66;5054245;28;20044;-55
2022/05/09 02:42:20;;;;;;;14.43;4.60;;;;;;;8.09;89.19;102674.09;5053931;28;20135;-54
2022/05/09 02:44:52;;;;;;;12.18;3.53;;;;;;;8.14;89.08;102674.84;5054294;28;20045;-56
2022/05/09 02:47:20;;;;;;;12.50;3.72;;;;;;;8.17;88.43;102682.63;5054010;28;20045;-55
2022/05/09 02:49:48;;;;;;;9.15;3.20;;;;;;;8.35;87.83;102667.31;5053772;28;20041;-54
2022/05/09 02:52:16;;;;;;;12.43;3.53;;;;;;;8.28;88.04;102672.72;5053746;28;20080;-55
2022/05/09 02:54:45;;;;;;;13.38;4.05;;;;;;;8.18;88.71;102666.00;5054088;28;20439;-53
2022/05/09 02:57:13;;;;;;;10.55;3.85;;;;;;;8.10;89.21;102674.06;5054147;28;20389;-53
2022/05/09 02:59:42;;;;;;;12.90;3.83;;;;;;;8.09;89.21;102674.09;5053809;28;20049;-55
2022/05/09 03:02:11;;;;;;;11.35;3.50;;;;;;;8.07;88.70;102673.25;5053114;28;20048;-54
2022/05/09 03:04:39;;;;;;;10.63;3.42;;;;;;;8.03;89.25;102672.50;5049994;28;20049;-56
2022/05/09 03:07:07;;;;;;;11.60;4.28;;;;;;;8.00;89.77;102674.31;5050032;28;20071;-53
2022/05/09 03:09:36;;;;;;;10.15;3.53;;;;;;;8.08;89.44;102661.88;5053476;28;20125;-53
2022/05/09 03:12:05;;;;;;;15.13;3.70;;;;;;;8.07;89.30;102660.16;5053764;28;20049;-55
2022/05/09 03:14:33;;;;;;;9.63;3.28;;;;;;;8.07;88.62;102663.66;5050028;28;20492;-55
2022/05/09 03:17:02;;;;;;;8.32;3.33;;;;;;;8.11;88.47;102664.41;5048891;28;20228;-55
2022/05/09 03:19:32;;;;;;;16.30;4.07;;;;;;;8.10;89.20;102665.34;5053310;28;20045;-55
2022/05/09 03:22:01;;;;;;;12.38;4.03;;;;;;;8.14;88.46;102653.88;5053481;28;20495;-53
2022/05/09 03:24:29;;;;;;;13.73;4.03;;;;;;;8.22;88.36;102654.53;5053602;28;20076;-55
2022/05/09 03:26:59;;;;;;;11.25;3.72;;;;;;;8.04;89.38;102660.25;5053218;28;20380;-55
2022/05/09 03:29:28;;;;;;;9.63;3.92;;;;;;;8.04;89.24;102650.59;5052677;28;20091;-55
2022/05/09 03:31:56;;;;;;;11.70;3.53;;;;;;;7.97;89.79;102658.69;5049056;28;20045;-55
2022/05/09 03:34:25;;;;;;;14.20;4.15;;;;;;;8.02;89.69;102652.41;5050687;28;20530;-55
2022/05/09 03:36:55;;;;;;;17.05;3.75;;;;;;;7.95;90.12;102653.50;5052580;28;20053;-54
2022/05/09 03:39:23;;;;;;;9.50;3.17;;;;;;;7.99;89.54;102651.63;5052459;28;20052;-55
2022/05/09 03:41:51;;;;;;;13.70;3.72;;;;;;;7.91;89.86;102651.84;5052327;28;20040;-54
2022/05/09 03:44:19;;;;;;;11.18;3.47;;;;;;;7.97;89.97;102649.06;5052386;28;20103;-62
2022/05/09 03:46:47;;;;;;;12.70;3.50;;;;;;;7.86;90.45;102649.31;5052363;28;20041;-61
2022/05/09 03:49:16;;;;;;;13.30;4.03;;;;;;;7.82;90.23;102647.69;5052986;28;20064;-62
2022/05/09 03:51:44;;;;;;;13.18;4.35;;;;;;;7.85;90.11;102644.13;5052814;28;20049;-62
2022/05/09 03:54:13;;;;;;;16.10;4.70;;;;;;;7.80;90.60;102646.88;5052557;28;20044;-62
2022/05/09 03:56:42;;;;;;;11.48;4.20;;;;;;;7.83;90.45;102640.69;5051692;28;20167;-63
2022/05/09 03:59:10;;;;;;;16.55;4.32;;;;;;;7.84;90.63;102645.00;5048817;28;20041;-62
2022/05/09 04:01:38;;;;;;;16.95;5.05;;;;;;;7.85;90.56;102639.72;5050212;28;20098;-62
2022/05/09 04:04:07;;;;;;;15.80;4.40;;;;;;;7.83;90.14;102638.06;5052467;28;20140;-63
2022/05/09 04:06:35;;;;;;;11.68;3.97;;;;;;;7.85;90.12;102639.72;5052521;28;20049;-63
2022/05/09 04:09:03;;;;;;;9.43;3.80;;;;;;;7.84;90.16;102637.16;5052574;28;20040;-62
2022/05/09 04:11:33;;;;;;;14.20;3.75;;;;;;;7.78;90.19;102636.44;5052551;28;20057;-63
2022/05/09 04:14:02;;;;;;;15.82;3.60;;;;;;;7.77;90.03;102637.31;5051742;28;20450;-63
2022/05/09 04:16:50;;;;;;;12.00;4.05;;;;;;;7.81;90.31;102632.00;5052791;28;20056;-63
2022/05/09 04:19:20;;;;;;;15.10;3.78;;;;;;;7.67;91.20;102637.59;5052120;28;20059;-63
2022/05/09 04:21:48;;;;;;;21.10;3.97;;;;;;;7.71;91.20;102637.47;5052490;28;20052;-63
2022/05/09 04:24:17;;;;;;;16.83;4.20;;;;;;;7.74;91.16;102641.78;5052196;28;20048;-62
2022/05/09 04:26:46;;;;;;;11.77;3.97;;;;;;;7.71;91.20;102640.06;5052279;28;20060;-63
2022/05/09 04:29:14;;;;;;;12.82;3.97;;;;;;;7.71;91.99;102632.22;5049784;28;20132;-64
2022/05/09 04:31:43;;;;;;;15.25;3.78;;;;;;;7.74;91.69;102632.16;5050574;28;20115;-61
2022/05/09 04:34:11;;;;;;;16.60;4.28;;;;;;;7.77;91.91;102636.44;5047604;28;20041;-62
2022/05/09 04:36:39;;;;;;;18.15;5.43;;;;;;;7.71;91.36;102642.69;5048259;28;20423;-62
2022/05/09 04:39:08;;;;;;;12.73;3.85;;;;;;;7.73;92.00;102633.06;5052160;28;20041;-61
2022/05/09 04:41:36;;;;;;;12.85;4.20;;;;;;;7.76;91.31;102639.97;5052172;28;20077;-61
2022/05/09 04:44:06;;;;;;;15.15;4.90;;;;;;;7.67;92.04;102630.56;5052096;28;20456;-61
2022/05/09 04:46:35;;;;;;;14.50;4.03;;;;;;;7.76;91.59;102634.75;5052166;28;20052;-62
2022/05/09 04:49:03;;;;;;;11.60;3.88;;;;;;;7.80;91.76;102631.16;5048018;28;20036;-62
2022/05/09 04:51:32;;;;;;;17.73;4.60;;;;;;;7.81;91.69;102627.59;5048368;28;20071;-62
2022/05/09 04:54:00;;;;;;;12.85;4.55;;;;;;;7.90;91.61;102630.00;5051777;28;20037;-62
2022/05/09 04:56:28;;;;;;;14.90;4.22;;;;;;;7.84;92.42;102627.56;5051986;28;20053;-62
2022/05/09 04:58:56;;;;;;;15.82;4.20;;;;;;;7.89;92.00;102630.91;5052044;28;20507;-62
2022/05/09 05:01:26;;;;;;;14.10;4.35;;;;;;;7.95;91.54;102630.75;5050876;28;20052;-63
2022/05/09 05:03:54;;;;;;;11.35;4.47;;;;;;;7.94;91.90;102629.03;5048217;28;20041;-62
2022/05/09 05:06:22;;;;;;;17.23;4.78;;;;;;;8.05;91.99;102626.13;5048216;28;20136;-61
2022/05/09 05:08:51;;;;;;;19.65;5.15;;;;;;;8.03;91.42;102617.47;5051447;28;20059;-62
2022/05/09 05:11:19;;;;;;;15.57;4.78;;;;;;;8.06;91.25;102620.00;5050900;28;20040;-62
2022/05/09 05:13:47;;;;;;;10.90;3.83;;;;;;;8.14;91.63;102622.44;5050896;28;20055;-62
2022/05/09 05:16:15;;;;;;;17.15;4.60;;;;;;;8.21;90.70;102623.97;5050589;28;20052;-62
2022/05/09 05:18:45;;;;;;;15.35;4.90;;;;;;;8.30;89.67;102615.00;5049807;28;20068;-63
2022/05/09 05:21:15;;;;;;;10.57;4.63;;;;;;;8.23;90.05;102613.44;5046756;28;20059;-62
2022/05/09 05:23:44;;;;;;;13.18;4.18;;;;;;;8.23;90.07;102619.53;5050805;28;20047;-62
2022/05/09 05:26:13;;;;;;;12.15;4.80;;;;;;;8.28;89.54;102615.03;5053668;28;20045;-62
2022/05/09 05:28:41;;;;;;;16.15;4.97;;;;;;;8.34;89.10;102613.16;5055836;28;20057;-61
2022/05/09 05:31:15;;;;;;;17.45;4.68;;;;;;;8.43;88.66;102618.16;5053435;28;20087;-62
2022/05/09 05:33:45;;;;;;;17.73;5.10;;;;;;;8.47;88.71;102617.19;5052128;28;20427;-63
2022/05/09 05:36:14;;;;;;;16.95;4.65;;;;;;;8.55;88.73;102627.44;5054971;28;20051;-63
2022/05/09 05:38:43;;;;;;;13.60;4.85;;;;;;;8.63;88.76;102618.47;5055362;28;20103;-62
2022/05/09 05:41:11;;;;;;;14.70;4.40;;;;;;;8.73;89.03;102624.31;5055382;28;20099;-63
2022/05/09 05:43:40;;;;;;;14.95;4.65;;;;;;;8.81;89.22;102618.84;5054105;28;20049;-62
2022/05/09 05:46:11;;;;;;;14.13;4.18;;;;;;;8.92;89.71;102623.78;5052322;28;20485;-62
2022/05/09 05:48:39;;;;;;;12.30;4.20;;;;;;;8.98;88.55;102622.72;5053098;28;20053;-62
2022/05/09 05:51:09;;;;;;;13.45;4.53;;;;;;;9.08;89.05;102621.53;5055044;28;20441;-63
2022/05/09 05:53:37;;;;;;;15.55;5.07;;;;;;;9.16;86.93;102627.41;5055337;28;20080;-63
2022/05/09 05:56:05;;;;;;;13.50;4.63;;;;;;;9.27;85.60;102632.31;5054901;28;20037;-63
2022/05/09 05:58:34;;;;;;;13.18;4.60;;;;;;;9.33;85.36;102624.25;5055098;28;20127;-63
2022/05/09 06:01:02;;;;;;;11.32;4.65;;;;;;;9.45;83.85;102630.91;5054931;28;20076;-62
2022/05/09 06:03:30;;;;;;;16.13;4.90;;;;;;;9.48;82.86;102629.03;5054755;28;20047;-62
2022/05/09 06:05:58;;;;;;;16.40;5.13;;;;;;;9.58;82.75;102628.72;5054751;28;20065;-62
2022/05/09 06:08:28;;;;;;;14.35;4.85;;;;;;;9.67;82.25;102628.44;5054910;28;20056;-62
2022/05/09 06:10:56;;;;;;;14.48;5.68;;;;;;;9.79;82.83;102628.03;5055007;28;20048;-62
2022/05/09 06:13:24;;;;;;;16.08;4.28;;;;;;;9.86;81.85;102623.44;5054659;28;20423;-62
2022/05/09 06:15:53;;;;;;;15.23;4.57;;;;;;;9.97;81.60;102616.03;5054130;28;20433;-62
2022/05/09 06:18:22;;;;;;;16.88;4.88;;;;;;;10.10;81.68;102620.84;5050623;28;20512;-62
2022/05/09 06:20:50;;;;;;;13.02;4.07;;;;;;;10.17;81.26;102614.50;5050717;28;20480;-62
2022/05/09 06:23:18;;;;;;;20.55;4.78;;;;;;;10.30;79.63;102620.16;5054025;28;20127;-56
2022/05/09 06:25:48;;;;;;;16.25;6.25;;;;;;;10.36;80.61;102617.34;5053519;28;20048;-56
2022/05/09 06:28:18;;;;;;;18.63;5.50;;;;;;;10.47;79.83;102617.81;5053508;28;20099;-62
2022/05/09 06:30:47;;;;;;;14.95;5.15;;;;;;;10.61;80.63;102617.31;5053431;28;20055;-62
2022/05/09 06:33:22;;;;;;;13.82;4.97;;;;;;;10.77;79.57;102616.72;5053508;28;20045;-63
2022/05/09 06:35:51;;;;;;;15.18;4.80;;;;;;;10.93;77.72;102617.00;5053889;28;20049;-63
2022/05/09 06:38:20;;;;;;;14.30;4.50;;;;;;;11.05;78.47;102613.03;5050530;28;20202;-62
2022/05/09 06:40:50;;;;;;;14.10;4.30;;;;;;;11.17;77.99;102602.03;5049590;28;20041;-62
2022/05/09 06:43:19;;;;;;;10.90;3.90;;;;;;;11.36;76.74;102594.25;5053521;28;20144;-62
2022/05/09 06:45:47;;;;;;;12.43;4.88;;;;;;;11.52;75.41;102598.88;5050327;28;20045;-62
2022/05/09 06:48:16;;;;;;;13.93;4.45;;;;;;;11.50;74.59;102597.16;5052445;28;20476;-62
2022/05/09 06:50:44;;;;;;;13.02;4.38;;;;;;;11.72;75.79;102592.78;5049626;28;20056;-62
2022/05/09 06:53:13;;;;;;;14.07;5.25;;;;;;;11.95;74.42;102597.09;5050911;28;20584;-62
2022/05/09 06:55:46;;;;;;;13.70;4.45;;;;;;;12.14;74.09;102602.44;5052605;28;20056;-62
2022/05/09 06:58:21;;;;;;;14.88;4.05;;;;;;;12.37;73.38;102597.94;5050377;28;20049;-62
2022/05/09 07:00:50;;;;;;;14.30;3.72;;;;;;;12.52;71.75;102598.06;5051454;28;20055;-62
2022/05/09 07:03:19;;;;;;;13.05;3.97;;;;;;;12.75;70.09;102598.81;5053666;28;20114;-62
2022/05/09 07:05:49;;;;;;;12.38;4.15;;;;;;;12.85;70.72;102599.22;5053597;28;20478;-62
2022/05/09 07:08:18;;;;;;;12.80;4.28;;;;;;;13.02;69.55;102601.09;5053702;28;20151;-62
2022/05/09 07:10:47;;;;;;;12.43;4.20;;;;;;;13.20;68.50;102604.63;5053802;28;20136;-62
2022/05/09 07:13:36;;;;;;;15.50;4.00;;;;;;;13.34;68.42;102599.50;5053593;28;20056;-62
2022/05/09 07:16:05;;;;;;;16.13;4.28;;;;;;;13.45;66.35;102599.00;5049288;28;20388;-62
2022/05/09 07:18:34;;;;;;;13.07;3.95;;;;;;;13.57;66.22;102594.91;5049687;28;20103;-62
2022/05/09 07:21:03;;;;;;;13.73;4.43;;;;;;;13.82;68.20;102593.66;5052928;28;20116;-61
2022/05/09 07:23:31;;;;;;;13.07;4.57;;;;;;;13.99;65.58;102596.31;5053433;28;20439;-61
2022/05/09 07:26:00;;;;;;;13.85;4.22;;;;;;;14.25;65.29;102591.44;5053498;28;20512;-64
2022/05/09 07:28:29;;;;;;;12.25;4.00;;;;;;;14.30;62.21;102589.41;5053636;28;20415;-61
2022/05/09 07:31:00;;;;;;;12.43;4.20;;;;;;;14.32;61.62;102590.16;5049251;28;20496;-62
2022/05/09 07:33:29;;;;;;;11.73;4.45;;;;;;;14.57;61.92;102583.53;5049741;28;20087;-62
2022/05/09 07:35:58;;;;;;;14.73;4.30;;;;;;;14.81;60.97;102585.81;5053380;28;20500;-62
2022/05/09 07:38:26;;;;;;;13.18;3.92;;;;;;;14.90;60.35;102590.59;5050241;28;20128;-61
2022/05/09 07:40:55;;;;;;;11.65;4.10;;;;;;;15.10;60.82;102585.97;5047849;28;20826;-62
2022/05/09 07:43:25;;;;;;;12.48;4.28;;;;;;;15.06;58.21;102589.75;5052431;28;20102;-62
2022/05/09 07:45:55;;;;;;;11.77;4.25;;;;;;;15.15;58.96;102583.94;5048258;28;20508;-61
2022/05/09 07:48:27;;;;;;;13.63;4.30;;;;;;;15.30;59.56;102591.00;5048450;28;20485;-61
2022/05/09 07:50:57;;;;;;;11.53;4.10;;;;;;;15.65;59.98;102585.44;5052302;28;20068;-62
2022/05/09 07:53:28;;;;;;;12.32;3.90;;;;;;;15.79;57.03;102583.72;5052800;28;20480;-62
2022/05/09 07:55:57;;;;;;;13.35;4.38;;;;;;;15.97;58.05;102585.31;5052499;28;20049;-61
2022/05/09 07:58:25;;;;;;;13.57;4.50;;;;;;;16.25;57.66;102578.31;5052236;28;20049;-61
2022/05/09 08:00:58;;;;;;;11.25;4.10;;;;;;;16.55;57.68;102574.69;5048328;28;20085;-61
2022/05/09 08:03:30;;;;;;;11.10;4.05;;;;;;;16.75;55.40;102577.91;5050514;28;20060;-61
2022/05/09 08:05:59;;;;;;;10.85;4.13;;;;;;;16.94;54.93;102582.91;5052569;28;20049;-61
2022/05/09 08:08:29;;;;;;;13.15;4.00;;;;;;;17.31;53.79;102580.50;5052780;28;20059;-62
2022/05/09 08:10:59;;;;;;;11.25;4.55;;;;;;;17.46;54.31;102589.25;5052521;28;20041;-61
2022/05/09 08:13:30;;;;;;;12.88;4.78;;;;;;;17.45;52.05;102584.88;5052202;28;20053;-61
2022/05/09 08:15:59;;;;;;;12.02;4.05;;;;;;;17.45;53.03;102584.88;5051854;28;20127;-61
2022/05/09 08:18:30;;;;;;;14.07;4.55;;;;;;;17.72;52.29;102576.84;5051838;28;20080;-61
2022/05/09 08:20:59;;;;;;;11.68;4.45;;;;;;;18.02;50.69;102581.03;5051937;28;20184;-62
2022/05/09 08:23:28;;;;;;;11.07;4.20;;;;;;;18.33;50.62;102579.72;5049035;28;20049;-62
2022/05/09 08:25:57;;;;;;;11.73;4.28;;;;;;;18.53;49.87;102575.66;5049388;28;20505;-61
2022/05/09 08:28:27;;;;;;;10.00;3.83;;;;;;;18.57;48.34;102573.63;5052141;28;20050;-61
2022/05/09 08:30:57;;;;;;;11.70;4.20;;;;;;;18.76;48.34;102570.50;5049110;28;20440;-61
2022/05/09 08:33:28;;;;;;;15.40;4.35;;;;;;;19.04;47.28;102576.47;5048233;28;20123;-61
2022/05/09 08:35:58;;;;;;;12.43;4.70;;;;;;;19.23;46.11;102581.28;5051967;28;20095;-61
2022/05/09 08:38:27;;;;;;;11.40;4.13;;;;;;;19.51;45.37;102572.06;5051811;28;20139;-61
2022/05/09 08:41:08;;;;;;;12.98;5.15;;;;;;;19.63;46.47;102577.41;5052057;28;20049;-61
2022/05/09 08:44:10;;;;;;;12.48;4.65;;;;;;;19.95;44.12;102576.75;5052057;28;20049;-61
2022/05/09 08:46:47;;;;;;;15.75;4.63;;;;;;;20.21;43.83;102569.41;5051866;28;20064;-61
2022/05/09 08:49:39;;;;;;;13.25;4.80;;;;;;;20.41;42.22;102576.66;5050195;28;20056;-61
2022/05/09 08:52:18;;;;;;;12.15;4.80;;;;;;;20.80;41.85;102578.09;5046170;28;20057;-62
2022/05/09 08:54:46;;;;;;;13.43;4.75;;;;;;;20.85;43.24;102578.56;5051979;28;20041;-61
2022/05/09 08:57:17;;;;;;;11.82;4.10;;;;;;;20.85;39.52;102575.91;5050549;28;20048;-61
2022/05/09 08:59:49;;;;;;;14.05;4.78;;;;;;;20.96;40.13;102577.69;5047457;28;20053;-62
2022/05/09 09:02:24;;;;;;;11.88;3.92;;;;;;;21.21;40.94;102571.13;5050880;28;20443;-61
2022/05/09 09:04:55;;;;;;;10.07;3.65;;;;;;;21.49;38.32;102574.16;5051193;28;20092;-62
2022/05/09 09:07:44;;;;;;;11.45;3.92;;;;;;;21.75;38.53;102570.13;5045999;28;20045;-61
2022/05/09 09:10:21;;;;;;;11.90;4.47;;;;;;;21.74;37.21;102571.13;5049678;28;20132;-62
2022/05/09 09:13:03;;;;;;;11.57;4.05;;;;;;;21.96;37.14;102558.56;5051336;28;20037;-62
2022/05/09 09:15:45;;;;;;;11.40;3.70;;;;;;;21.67;36.51;102558.41;5051564;28;20504;-61
2022/05/09 09:18:45;;;;;;;8.82;3.83;;;;;;;21.99;37.40;102558.31;5051711;28;20045;-61
2022/05/09 09:21:21;;;;;;;9.65;3.78;;;;;;;22.30;34.56;102555.59;5046566;28;20049;-56
2022/05/09 09:24:08;;;;;;;10.40;3.20;;;;;;;22.48;34.85;102552.28;5048241;28;20466;-56
2022/05/09 09:26:46;;;;;;;7.47;3.17;;;;;;;22.75;33.46;102543.59;5051077;28;20112;-57
2022/05/09 09:29:19;;;;;;;8.23;3.00;;;;;;;22.91;33.56;102543.03;5051161;28;20045;-55
2022/05/09 09:31:49;;;;;;;5.30;1.98;;;;;;;23.15;30.86;102539.97;5047232;28;20053;-57
2022/05/09 09:34:27;;;;;;;9.52;3.42;;;;;;;23.20;32.09;102539.53;5047876;28;20057;-56
2022/05/09 09:37:02;;;;;;;8.80;3.30;;;;;;;23.32;32.91;102545.59;5051055;28;20124;-56
2022/05/09 09:39:32;;;;;;;9.20;3.40;;;;;;;23.05;33.20;102531.88;5048830;28;20087;-56
2022/05/09 09:42:00;;;;;;;9.55;3.28;;;;;;;23.47;33.94;102541.47;5047307;28;20053;-56
2022/05/09 09:44:31;;;;;;;9.50;3.35;;;;;;;23.57;33.09;102534.25;5050570;28;20041;-56
2022/05/09 09:47:03;;;;;;;8.32;3.10;;;;;;;23.87;30.85;102526.09;5050507;28;20045;-56
2022/05/09 09:49:33;;;;;;;8.57;2.92;;;;;;;23.64;30.87;102534.50;5050344;28;20091;-56
2022/05/09 09:52:02;;;;;;;9.93;2.67;;;;;;;23.54;31.71;102529.16;5050917;28;20119;-56
2022/05/09 09:54:35;;;;;;;7.95;3.05;;;;;;;23.92;32.73;102531.91;5050973;28;20511;-56
2022/05/09 09:57:18;;;;;;;11.45;2.88;;;;;;;23.70;31.07;102530.41;5051060;28;20045;-55
2022/05/09 09:59:47;;;;;;;6.65;2.55;;;;;;;23.62;30.80;102531.13;5051280;28;20581;-55
2022/05/09 10:02:22;;;;;;;7.75;2.92;;;;;;;23.86;31.82;102527.06;5050765;28;20045;-55
2022/05/09 10:04:51;;;;;;;11.80;2.83;;;;;;;24.18;30.88;102512.41;5050901;28;20080;-56
2022/05/09 10:07:28;;;;;;;7.07;2.58;;;;;;;24.54;30.23;102509.78;5047083;28;20093;-55
2022/05/09 10:10:20;;;;;;;9.73;2.72;;;;;;;24.88;30.06;102506.44;5047799;28;20399;-55
2022/05/09 10:12:51;;;;;;;10.98;3.33;;;;;;;24.98;30.52;102509.91;5050613;28;20438;-56
2022/05/09 10:15:26;;;;;;;11.73;3.20;;;;;;;24.89;30.13;102508.13;5054433;28;20052;-56
2022/05/09 10:17:55;;;;;;;9.57;3.10;;;;;;;24.90;29.66;102507.13;5053395;28;20056;-57
2022/05/09 10:20:33;;;;;;;11.27;3.28;;;;;;;24.96;31.10;102504.66;5049682;28;20106;-57
2022/05/09 10:26:05;;;;;;;10.52;3.70;;;;;;;24.63;30.51;102484.69;5053932;28;20063;-56
2022/05/09 10:28:36;;;;;;;;;;;;;;;25.24;30.74;102496.47;5050616;28;20095;-55
2022/05/09 10:31:14;;;;;;;11.57;3.30;;;;;;;25.56;29.93;102483.41;5050014;28;19920;-56
2022/05/09 10:33:50;;;;;;;10.07;2.97;;;;;;;25.88;29.19;102485.41;5053501;28;20122;-56
2022/05/09 10:36:23;;;;;;;7.35;2.70;;;;;;;25.93;29.12;102485.78;5053910;28;20538;-56
2022/05/09 10:38:57;;;;;;;9.43;2.90;;;;;;;25.86;29.61;102476.63;5053938;28;20053;-56
2022/05/09 10:41:33;;;;;;;8.88;3.20;;;;;;;26.09;28.67;102479.59;5053969;28;20045;-56
2022/05/09 10:44:09;;;;;;;9.52;3.15;;;;;;;26.40;28.35;102467.41;5053873;28;20037;-56
2022/05/09 10:46:43;;;;;;;9.65;3.60;;;;;;;26.35;27.17;102467.03;5050855;28;20045;-55
2022/05/09 10:49:29;;;;;;;10.90;3.25;;;;;;;26.27;27.81;102466.03;5049764;28;20072;-56
2022/05/09 10:52:07;;;;;;;14.32;3.50;;;;;;;26.01;28.93;102466.06;5053579;28;20059;-56
2022/05/09 10:54:46;;;;;;;12.77;3.70;;;;;;;25.68;28.69;102460.56;5051621;28;20072;-55
2022/05/09 10:57:23;;;;;;;8.50;3.47;;;;;;;25.50;29.31;102459.78;5049118;28;20152;-55
2022/05/09 11:00:14;;;;;;;9.50;3.00;;;;;;;26.19;30.17;102452.53;5053210;28;20041;-55
2022/05/09 11:02:50;;;;;;;8.03;2.90;;;;;;;26.09;29.45;102460.72;5053573;28;20055;-57
2022/05/09 11:05:19;;;;;;;8.85;2.28;;;;;;;26.63;29.85;102454.09;5053341;28;20056;-57
2022/05/09 11:07:56;;;;;;;9.20;3.20;;;;;;;26.91;27.73;102453.78;5053321;28;20129;-54
2022/05/09 11:10:32;;;;;;;8.23;2.67;;;;;;;26.67;27.65;102447.38;5052165;28;20057;-55
2022/05/09 11:13:17;;;;;;;6.03;2.50;;;;;;;27.29;27.56;102444.09;5053110;28;20052;-56
2022/05/09 11:15:59;;;;;;;7.10;2.40;;;;;;;27.53;28.33;102436.97;5053348;28;20049;-56
2022/05/09 11:18:38;;;;;;;;;;;;;;;27.35;27.28;102437.19;5052429;28;20053;-57
2022/05/09 11:21:19;;;;;;;6.85;2.50;;;;;;;27.57;26.63;102434.75;5047762;28;20030;-57
2022/05/09 11:23:56;;;;;;;8.05;2.40;;;;;;;27.71;26.06;102436.72;5050936;28;20089;-56
2022/05/09 11:26:31;;;;;;;9.65;2.85;;;;;;;27.61;26.14;102431.53;5053000;28;20048;-56
2022/05/09 11:29:19;;;;;;;5.93;2.35;;;;;;;27.79;26.59;102431.28;5051922;28;20504;-56
2022/05/09 11:32:05;;;;;;;8.63;2.42;;;;;;;28.02;26.08;102432.38;5048434;28;20056;-56
2022/05/09 11:34:50;;;;;;;7.88;2.70;;;;;;;28.11;25.28;102434.00;5049755;28;20064;-57
2022/05/09 11:37:30;;;;;;;9.85;2.35;;;;;;;28.31;25.47;102424.41;5052627;28;20055;-56
2022/05/09 11:40:09;;;;;;;8.82;2.67;;;;;;;28.14;26.53;102420.13;5052463;28;20077;-56
2022/05/09 11:45:52;;;;;;;7.35;2.33;;;;;;;28.60;24.91;102411.16;5051463;28;20079;-60
2022/05/09 11:48:31;;;;;;;9.98;2.70;;;;;;;28.49;24.11;102413.28;5048542;28;20056;-60
2022/05/09 11:51:15;;;;;;;7.30;2.25;;;;;;;28.68;24.29;102408.41;5051323;28;20045;-61
2022/05/09 11:53:49;;;;;;;8.27;2.70;;;;;;;28.50;24.74;102412.25;5052408;28;20072;-61